Riverdale, Maryland
Current Conditions -  °F | °C
As of 12:40 AM on Tuesday 27 Jan 2015 (Local Time) from KCGS Reporting Station
Overcast Overcast  
Wind Chill: 20°   Ceiling: 2700
Heat Index: 28°   Visibility: 7mi
Dew Point: 25°   Wind: 9mph
Humidity: 86%   Direction: 340°NNW
Pressure: 29.75"   Gusts: NA
Location:  38.96°N, 76.93°W
Report Text: KCGS 270540Z AUTO 34008KT 7SM BKN027 OVC031 M02/M04 A2975 RMK AO1
Loading
Personal Weather Stations






























Interactive Weather Map New forecast layout! Learn more

10-Day Weather Forecast

Advertisements
Track Severe Weather on mobile